Nacip Raydan, Brazil
Current Conditions -  °F | °C
As of 6:00 AM on Thursday 29 Jan 2015 (Local Time) from SBLS Reporting Station
Broken Clouds Broken Clouds  
Wind Chill: 68°   Ceiling: 8000
Heat Index: 68°   Visibility: 6mi
Dew Point: 63°   Wind: 8mph
Humidity: 83%   Direction: 170°S
Pressure: 30.06"   Gusts: NA
Location:  18.46°S, 42.25°W
Report Text: SBLS 290800Z 17007KT 9999 SCT025 BKN080 20/17 Q1018
Loading
Personal Weather Stations






























Interactive Weather Map New forecast layout! Learn more

10-Day Weather Forecast

Advertisements
Track Severe Weather on mobile